KDIK/DIK METAR and TAF weather

Enter ICAO airport designator
Station Type Date Time Source
KDIK METAR 2020/01/17 22:12 UTC NOAA

KDIK 172212Z AUTO 31022G31KT 6SM HZ FEW008 SCT011 OVC110 M15/M19 A2982 RMK AO2 PK WND 30031/2157 T11501189


Station Type Date Time Source
KDIK Decoded METAR 2020/01/17 22:12 UTC NOAA

THEODORE ROOSEVELT REGIONAL, ND, United States (KDIK) 46-48N 102-48W 788M
Jan 17, 2020 - 05:12 PM EST / 2020.01.17 2212 UTC
Wind: from the NW (310 degrees) at 25 MPH (22 KT) gusting to 36 MPH (31 KT):0
Visibility: 6 mile(s):0
Sky conditions: overcast
Weather: haze
Temperature: 5.0 F (-15.0 C)
Windchill: -16 F (-27 C):2
Dew Point: -2.0 F (-18.9 C)
Relative Humidity: 72%
Pressure (altimeter): 29.82 in. Hg (1009 hPa)
ob: KDIK 172212Z AUTO 31022G31KT 6SM HZ FEW008 SCT011 OVC110 M15/M19 A2982 RMK AO2 PK WND 30031/2157 T11501189
cycle: 22

Station Type Date Time Source
KDIK TAF 2020/01/17 21:15 UTC NOAA

TAF
AMD KDIK 172113Z 1721/1818 31015G24KT 5SM -FZDZSN BKN015 BKN150
TEMPO 1721/1722 31024G34KT 6SM -FZDZSN OVC015
FM172200 31024G38KT 6SM -SN BLSN BKN025 OVC110
FM180000 31026G35KT 4SM -SN BLSN OVC022
FM180300 30028G40KT 4SM -SHSN BLSN OVC040
FM181500 30024G35KT P6SM SKC

Example: see airport list